createdAt,value
2023-05-08T00:02:02.254Z,10
2023-05-08T00:04:10.199Z,10
2023-05-08T00:06:18.111Z,9.9
2023-05-08T00:08:26.104Z,9.9
2023-05-08T00:10:35.855Z,9.8
2023-05-08T00:12:43.684Z,9.8
2023-05-08T00:14:51.656Z,9.7
2023-05-08T00:17:00.086Z,9.7
2023-05-08T00:19:08.605Z,9.7
2023-05-08T00:21:16.356Z,9.7
2023-05-08T00:23:24.315Z,9.6
2023-05-08T00:25:32.258Z,9.6
2023-05-08T00:27:41.401Z,9.6
2023-05-08T00:29:49.729Z,9.6
2023-05-08T00:31:57.629Z,9.6
2023-05-08T00:34:05.871Z,9.6
2023-05-08T00:36:16.034Z,9.6
2023-05-08T00:38:23.798Z,9.6
2023-05-08T00:40:32.049Z,9.5
2023-05-08T00:42:46.673Z,9.5
2023-05-08T00:44:56.306Z,9.5
2023-05-08T00:47:04.260Z,9.5
2023-05-08T00:49:14.429Z,9.4
2023-05-08T00:51:22.856Z,9.4
2023-05-08T00:53:33.080Z,9.4
2023-05-08T00:55:41.251Z,9.4
2023-05-08T00:57:50.673Z,9.4
2023-05-08T01:00:00.644Z,9.3
2023-05-08T01:02:09.842Z,9.3
2023-05-08T01:04:21.321Z,9.4
2023-05-08T01:06:29.147Z,9.3
2023-05-08T01:08:37.095Z,9.3
2023-05-08T01:10:49.621Z,9.3
2023-05-08T01:13:10.182Z,9.3
2023-05-08T01:15:21.457Z,9.3
2023-05-08T01:17:39.178Z,9.3
2023-05-08T01:20:07.676Z,9.3
2023-05-08T01:22:27.480Z,9.2
2023-05-08T01:25:03.640Z,9.2
2023-05-08T01:27:37.696Z,9.2
2023-05-08T01:30:11.196Z,9.1
2023-05-08T01:32:24.851Z,9.1
2023-05-08T01:34:34.548Z,9.1
2023-05-08T01:36:51.173Z,9
2023-05-08T01:39:07.888Z,9
2023-05-08T01:41:18.585Z,9
2023-05-08T01:43:30.985Z,8.9
2023-05-08T01:45:41.696Z,8.9
2023-05-08T01:47:57.188Z,8.9
2023-05-08T01:50:10.151Z,8.9
2023-05-08T01:52:26.335Z,8.9
2023-05-08T01:54:40.387Z,8.9
2023-05-08T01:56:49.748Z,8.8
2023-05-08T01:59:00.040Z,8.8
2023-05-08T02:01:09.844Z,8.8
2023-05-08T02:03:21.069Z,8.8
2023-05-08T02:05:30.077Z,8.7
2023-05-08T02:07:39.001Z,8.7
2023-05-08T02:09:48.375Z,8.6
2023-05-08T02:11:57.676Z,8.6
2023-05-08T02:14:07.117Z,8.6
2023-05-08T02:16:16.168Z,8.6
2023-05-08T02:18:27.022Z,8.5
2023-05-08T02:20:35.370Z,8.4
2023-05-08T02:22:44.207Z,8.4
2023-05-08T02:24:56.176Z,8.4
2023-05-08T02:27:04.761Z,8.4
2023-05-08T02:29:14.935Z,8.3
2023-05-08T02:31:24.144Z,8.3
2023-05-08T02:33:33.912Z,8.3
2023-05-08T02:35:44.740Z,8.3
2023-05-08T02:37:56.210Z,8.2
2023-05-08T02:40:07.266Z,8.2
2023-05-08T02:44:23.125Z,8.2
2023-05-08T02:46:40.594Z,8.2
2023-05-08T02:48:57.923Z,8.2
2023-05-08T02:51:19.306Z,8.2
2023-05-08T02:53:34.365Z,8.2
2023-05-08T02:55:49.542Z,8.2
2023-05-08T02:58:07.361Z,8.1
2023-05-08T03:00:22.403Z,8.1
2023-05-08T03:02:38.791Z,8.1
2023-05-08T03:04:52.739Z,8.1
2023-05-08T03:07:01.814Z,8.1
2023-05-08T03:09:20.271Z,8.1
2023-05-08T03:11:35.269Z,8.1
2023-05-08T03:13:45.075Z,8
2023-05-08T03:15:56.895Z,8
2023-05-08T03:18:09.200Z,8
2023-05-08T03:20:19.642Z,8
2023-05-08T03:22:29.579Z,8
2023-05-08T03:24:39.567Z,8
2023-05-08T03:26:47.903Z,8
2023-05-08T03:28:58.916Z,8
2023-05-08T03:31:07.911Z,8
2023-05-08T03:33:16.557Z,8
2023-05-08T03:35:28.354Z,8
2023-05-08T03:37:37.249Z,8
2023-05-08T03:39:45.381Z,8
2023-05-08T03:41:53.286Z,8
2023-05-08T03:44:04.415Z,8
2023-05-08T03:46:13.421Z,8.1
2023-05-08T03:48:22.558Z,8.1
2023-05-08T03:50:33.120Z,8.1
2023-05-08T03:52:41.210Z,8.1
2023-05-08T03:54:49.030Z,8.2
2023-05-08T03:56:56.986Z,8.2
2023-05-08T03:59:14.695Z,8.2
2023-05-08T04:01:26.958Z,8.2
2023-05-08T04:03:48.418Z,8.2
2023-05-08T04:06:02.189Z,8.2
2023-05-08T04:08:18.154Z,8.3
2023-05-08T04:10:30.497Z,8.3
2023-05-08T04:12:45.470Z,8.3
2023-05-08T04:14:56.862Z,8.4
2023-05-08T04:17:10.957Z,8.4
2023-05-08T04:19:22.996Z,8.4
2023-05-08T04:21:36.223Z,8.4
2023-05-08T04:23:46.936Z,8.5
2023-05-08T04:25:56.049Z,8.5
2023-05-08T04:28:04.904Z,8.5
2023-05-08T04:30:13.846Z,8.6
2023-05-08T04:32:22.795Z,8.6
2023-05-08T04:34:31.143Z,8.7
2023-05-08T04:36:40.540Z,9
2023-05-08T04:38:48.757Z,9.4
2023-05-08T04:40:57.284Z,9.8
2023-05-08T04:43:05.287Z,10.2
2023-05-08T04:45:13.828Z,10.6
2023-05-08T04:47:23.968Z,10.9
2023-05-08T04:49:31.818Z,11.3
2023-05-08T04:51:40.961Z,11.5
2023-05-08T04:53:48.695Z,11.5
2023-05-08T04:55:57.760Z,11.4
2023-05-08T04:58:05.762Z,11.2
2023-05-08T05:00:14.820Z,11.2
2023-05-08T05:02:22.968Z,11.2
2023-05-08T05:04:30.903Z,11.1
2023-05-08T05:06:40.028Z,11.1
2023-05-08T05:08:47.783Z,11
2023-05-08T05:10:55.656Z,10.9
2023-05-08T05:13:03.598Z,10.7
2023-05-08T05:15:12.964Z,10.6
2023-05-08T05:17:21.026Z,10.6
2023-05-08T05:19:28.832Z,10.5
2023-05-08T05:21:37.896Z,10.5
2023-05-08T05:23:47.188Z,10.4
2023-05-08T05:25:54.933Z,10.4
2023-05-08T05:28:03.359Z,10.4
2023-05-08T05:30:12.627Z,10.4
2023-05-08T05:32:21.240Z,10.3
2023-05-08T05:34:29.131Z,10.3
2023-05-08T05:36:37.297Z,10.3
2023-05-08T05:38:45.146Z,10.3
2023-05-08T05:40:54.376Z,10.4
2023-05-08T05:43:02.396Z,10.4
2023-05-08T05:45:11.608Z,10.4
2023-05-08T05:47:19.766Z,10.4
2023-05-08T05:49:27.812Z,10.5
2023-05-08T05:51:35.662Z,10.5
2023-05-08T05:53:43.995Z,10.5
2023-05-08T05:55:52.060Z,10.5
2023-05-08T05:58:01.487Z,10.6
2023-05-08T06:00:11.586Z,10.7
2023-05-08T06:02:20.757Z,10.6
2023-05-08T06:04:29.417Z,10.7
2023-05-08T06:06:36.960Z,10.8
2023-05-08T06:08:46.897Z,10.8
2023-05-08T06:10:55.143Z,10.9
2023-05-08T06:13:04.579Z,10.9
2023-05-08T06:15:15.380Z,11
2023-05-08T06:17:23.488Z,11
2023-05-08T06:19:31.482Z,11.1
2023-05-08T06:21:40.047Z,11.3
2023-05-08T06:23:47.831Z,11.4
2023-05-08T06:25:55.975Z,11.4
2023-05-08T06:28:08.515Z,11.4
2023-05-08T06:30:17.013Z,11.4
2023-05-08T06:32:27.716Z,11.5
2023-05-08T06:34:35.512Z,11.5
2023-05-08T06:36:43.308Z,11.7
2023-05-08T06:38:51.335Z,11.8
2023-05-08T06:40:59.078Z,11.8
2023-05-08T06:43:08.821Z,11.9
2023-05-08T06:45:17.658Z,12
2023-05-08T06:47:25.897Z,12.1
2023-05-08T06:49:33.704Z,12.2
2023-05-08T06:51:42.408Z,12.3
2023-05-08T06:53:51.147Z,12.4
2023-05-08T06:55:58.996Z,12.5
2023-05-08T06:58:08.168Z,12.6
2023-05-08T07:00:16.651Z,12.8
2023-05-08T07:02:24.778Z,12.8
2023-05-08T07:04:33.280Z,12.9
2023-05-08T07:06:42.864Z,13
2023-05-08T07:08:52.347Z,13
2023-05-08T07:11:02.844Z,13.1
2023-05-08T07:13:19.728Z,13.1
2023-05-08T07:15:38.620Z,13.2
2023-05-08T07:17:59.559Z,13.2
2023-05-08T07:20:14.409Z,13.2
2023-05-08T07:22:41.929Z,13.2
2023-05-08T07:24:54.483Z,13.4
2023-05-08T07:27:05.276Z,13.5
2023-05-08T07:29:14.825Z,13.4
2023-05-08T07:31:23.574Z,13.6
2023-05-08T07:33:31.802Z,13.7
2023-05-08T07:35:40.566Z,13.8
2023-05-08T07:37:48.538Z,13.8
2023-05-08T07:39:56.420Z,13.9
2023-05-08T07:42:04.434Z,14
2023-05-08T07:44:12.325Z,14
2023-05-08T07:46:22.097Z,14.2
2023-05-08T07:48:30.042Z,14.2
2023-05-08T07:50:38.124Z,14.2
2023-05-08T07:52:50.062Z,14.2
2023-05-08T07:55:02.694Z,14.3
2023-05-08T07:57:15.181Z,14.3
2023-05-08T07:59:24.758Z,14.4
2023-05-08T08:01:34.114Z,14.6
2023-05-08T08:03:41.891Z,14.7
2023-05-08T08:05:50.779Z,15
2023-05-08T08:07:58.690Z,15.2
2023-05-08T08:10:08.347Z,15.3
2023-05-08T08:12:16.500Z,15.2
2023-05-08T08:14:24.249Z,15.2
2023-05-08T08:16:33.830Z,15.2
2023-05-08T08:18:41.647Z,15.3
2023-05-08T08:20:49.633Z,15.5
2023-05-08T08:22:57.935Z,15.5
2023-05-08T08:25:06.488Z,15.6
2023-05-08T08:27:14.621Z,15.7
2023-05-08T08:29:22.368Z,15.9
2023-05-08T08:31:30.345Z,16
2023-05-08T08:33:39.495Z,16
2023-05-08T08:35:47.572Z,16
2023-05-08T08:37:55.363Z,16.2
2023-05-08T08:40:03.807Z,16.3
2023-05-08T08:42:12.179Z,16.4
2023-05-08T08:44:20.057Z,16.6
2023-05-08T08:46:29.703Z,16.6
2023-05-08T08:48:43.768Z,16.7
2023-05-08T08:50:59.534Z,16.8
2023-05-08T08:53:12.192Z,16.7
2023-05-08T08:55:23.781Z,16.7
2023-05-08T08:57:35.436Z,16.7
2023-05-08T08:59:44.800Z,16.9
2023-05-08T09:01:57.327Z,17
2023-05-08T09:04:06.852Z,17.1
2023-05-08T09:06:15.355Z,17.1
2023-05-08T09:08:23.764Z,17.1
2023-05-08T09:10:31.790Z,17.1
2023-05-08T09:12:41.072Z,17.2
2023-05-08T09:14:49.125Z,17.4
2023-05-08T09:16:57.082Z,17.6
2023-05-08T09:19:08.049Z,17.7
2023-05-08T09:21:16.091Z,17.9
2023-05-08T09:23:24.064Z,18.1
2023-05-08T09:25:45.633Z,18
2023-05-08T09:27:54.281Z,18.2
2023-05-08T09:30:05.737Z,18.3
2023-05-08T09:32:19.542Z,18.3
2023-05-08T09:34:29.993Z,18.4
2023-05-08T09:36:40.047Z,18.4
2023-05-08T09:38:47.755Z,18.4
2023-05-08T09:41:07.788Z,18.4
2023-05-08T09:43:15.720Z,18.4
2023-05-08T09:45:32.170Z,18.3
2023-05-08T09:47:49.366Z,18.3
2023-05-08T09:50:04.102Z,18.5
2023-05-08T09:52:16.652Z,18.7
2023-05-08T09:54:24.585Z,18.9
2023-05-08T09:56:37.668Z,19
2023-05-08T09:58:46.540Z,19.1
2023-05-08T10:00:55.460Z,19.1
2023-05-08T10:03:04.629Z,19
2023-05-08T10:05:26.214Z,19.1
2023-05-08T10:07:37.033Z,19.2
2023-05-08T10:10:00.603Z,19.2
2023-05-08T10:12:09.654Z,19.2
2023-05-08T10:14:17.436Z,19.2
2023-05-08T10:16:28.477Z,19.1
2023-05-08T10:18:38.649Z,19
2023-05-08T10:20:49.629Z,19
2023-05-08T10:22:58.259Z,18.9
2023-05-08T10:25:11.875Z,18.9
2023-05-08T10:27:27.903Z,19.2
2023-05-08T10:29:42.767Z,19.4
2023-05-08T10:31:53.411Z,19.6
2023-05-08T10:34:03.643Z,19.8
2023-05-08T10:36:14.682Z,19.8
2023-05-08T10:38:23.308Z,19.8
2023-05-08T10:40:31.046Z,19.8
2023-05-08T10:42:39.878Z,19.8
2023-05-08T10:44:47.850Z,19.8
2023-05-08T10:47:01.838Z,19.8
2023-05-08T10:49:17.642Z,19.7
2023-05-08T10:51:39.713Z,19.7
2023-05-08T10:53:52.877Z,20
2023-05-08T10:56:01.017Z,20
2023-05-08T10:58:14.832Z,20.1
2023-05-08T11:00:23.859Z,20.1
2023-05-08T11:02:36.744Z,20.1
2023-05-08T11:04:44.782Z,20.3
2023-05-08T11:06:53.954Z,20.5
2023-05-08T11:09:01.754Z,20.6
2023-05-08T11:11:29.355Z,20.6
2023-05-08T11:13:39.212Z,20.6
2023-05-08T11:15:52.334Z,20.4
2023-05-08T11:18:00.316Z,20.6
2023-05-08T11:20:10.448Z,20.7
2023-05-08T11:22:26.858Z,20.6
2023-05-08T11:24:36.735Z,20.6
2023-05-08T11:26:49.941Z,20.6
2023-05-08T11:28:58.462Z,20.7
2023-05-08T11:31:07.513Z,20.7
2023-05-08T11:33:17.244Z,20.6
2023-05-08T11:35:43.898Z,20.7
2023-05-08T11:38:15.017Z,20.7
2023-05-08T11:40:48.701Z,20.8
2023-05-08T11:42:57.459Z,20.7
2023-05-08T11:45:07.915Z,20.9
2023-05-08T11:47:19.538Z,21
2023-05-08T11:49:30.137Z,21.1
2023-05-08T11:51:44.549Z,21.1
2023-05-08T11:53:53.617Z,20.9
2023-05-08T11:56:01.651Z,21.1
2023-05-08T11:58:16.368Z,21.2
2023-05-08T12:00:24.625Z,21.4
2023-05-08T12:02:37.270Z,21.7
2023-05-08T12:04:46.597Z,21.9
2023-05-08T12:06:58.763Z,21.9
2023-05-08T12:09:16.358Z,21.8
2023-05-08T12:11:24.872Z,21.7
2023-05-08T12:13:32.988Z,21.6
2023-05-08T12:15:40.873Z,21.8
2023-05-08T12:17:48.658Z,21.9
2023-05-08T12:19:56.795Z,22
2023-05-08T12:22:04.644Z,22.1
2023-05-08T12:24:14.257Z,22.1
2023-05-08T12:26:22.258Z,22.1
2023-05-08T12:28:32.202Z,22
2023-05-08T12:30:40.227Z,22
2023-05-08T12:32:48.828Z,22
2023-05-08T12:34:57.077Z,22
2023-05-08T12:37:05.454Z,21.9
2023-05-08T12:39:16.310Z,22.1
2023-05-08T12:41:25.003Z,22.1
2023-05-08T12:43:34.377Z,22.1
2023-05-08T12:45:43.928Z,22.2
2023-05-08T12:47:53.346Z,22.2
2023-05-08T12:50:01.194Z,22
2023-05-08T12:52:10.387Z,21.9
2023-05-08T12:54:19.493Z,21.8
2023-05-08T12:56:27.554Z,21.8
2023-05-08T12:58:35.993Z,21.8
2023-05-08T13:00:45.409Z,21.8
2023-05-08T13:02:54.365Z,21.8
2023-05-08T13:05:04.116Z,21.9
2023-05-08T13:07:11.903Z,22.1
2023-05-08T13:09:21.586Z,22.1
2023-05-08T13:11:31.177Z,22.1
2023-05-08T13:13:38.885Z,22
2023-05-08T13:15:48.084Z,21.8
2023-05-08T13:17:55.848Z,21.8
2023-05-08T13:20:09.871Z,22
2023-05-08T13:22:22.847Z,22
2023-05-08T13:24:31.937Z,22.1
2023-05-08T13:26:39.703Z,22.2
2023-05-08T13:28:47.656Z,22.2
2023-05-08T13:30:55.351Z,22.1
2023-05-08T13:33:04.720Z,22.1
2023-05-08T13:35:12.917Z,22.2
2023-05-08T13:37:20.745Z,22.1
2023-05-08T13:39:28.688Z,22.1
2023-05-08T13:41:37.778Z,22.1
2023-05-08T13:43:45.568Z,22.1
2023-05-08T13:45:53.869Z,22.1
2023-05-08T13:48:01.854Z,22.2
2023-05-08T13:50:10.625Z,22.3
2023-05-08T13:52:18.784Z,22.2
2023-05-08T13:54:26.522Z,22.4
2023-05-08T13:56:34.298Z,22.6
2023-05-08T13:58:43.378Z,22.8
2023-05-08T14:00:51.371Z,22.8
2023-05-08T14:02:59.252Z,22.7
2023-05-08T14:05:08.894Z,22.5
2023-05-08T14:07:18.218Z,22.6
2023-05-08T14:09:26.331Z,22.7
2023-05-08T14:11:34.036Z,22.7
2023-05-08T14:13:43.062Z,22.7
2023-05-08T14:15:51.000Z,22.7
2023-05-08T14:17:58.942Z,22.5
2023-05-08T14:20:10.345Z,22.4
2023-05-08T14:22:21.139Z,22.4
2023-05-08T14:24:29.015Z,22.3
2023-05-08T14:26:36.728Z,22.3
2023-05-08T14:28:45.894Z,22.3
2023-05-08T14:30:53.798Z,22.2
2023-05-08T14:33:01.585Z,22.3
2023-05-08T14:35:10.766Z,22.4
2023-05-08T14:37:18.476Z,22.5
2023-05-08T14:39:26.298Z,22.5
2023-05-08T14:41:34.044Z,22.5
2023-05-08T14:43:42.782Z,22.5
2023-05-08T14:45:54.779Z,22.5
2023-05-08T14:48:02.696Z,22.5
2023-05-08T14:50:11.431Z,22.5
2023-05-08T14:52:20.946Z,22.5
2023-05-08T14:54:31.308Z,22.4
2023-05-08T14:56:46.939Z,22.5
2023-05-08T14:58:56.636Z,22.5
2023-05-08T15:01:06.288Z,22.5
2023-05-08T15:03:14.220Z,22.5
2023-05-08T15:05:22.567Z,22.5
2023-05-08T15:07:30.636Z,22.4
2023-05-08T15:09:38.403Z,22.2
2023-05-08T15:11:46.205Z,22.2
2023-05-08T15:13:54.156Z,22.2
2023-05-08T15:16:01.958Z,22.2
2023-05-08T15:18:11.201Z,22.2
2023-05-08T15:20:20.912Z,22.3
2023-05-08T15:22:28.618Z,22.3
2023-05-08T15:24:36.338Z,22.3
2023-05-08T15:26:44.044Z,22.4
2023-05-08T15:28:51.889Z,22.6
2023-05-08T15:30:59.669Z,22.5
2023-05-08T15:33:07.468Z,22.4
2023-05-08T15:35:16.844Z,22.3
2023-05-08T15:37:24.686Z,22.4
2023-05-08T15:39:32.664Z,22.3
2023-05-08T15:41:41.221Z,22.3
2023-05-08T15:43:48.978Z,22.3
2023-05-08T15:45:56.948Z,22.2
2023-05-08T15:48:05.237Z,22.2
2023-05-08T15:50:13.492Z,22.2
2023-05-08T15:52:22.820Z,22.2
2023-05-08T15:54:30.580Z,22.2
2023-05-08T15:56:38.264Z,22.1
2023-05-08T15:58:45.968Z,22.1
2023-05-08T16:00:54.489Z,21.9
2023-05-08T16:03:02.407Z,21.9
2023-05-08T16:05:10.821Z,21.9
2023-05-08T16:07:18.658Z,22
2023-05-08T16:09:27.965Z,22
2023-05-08T16:11:35.700Z,21.8
2023-05-08T16:13:43.502Z,21.7
2023-05-08T16:15:51.496Z,21.7
2023-05-08T16:17:59.313Z,21.7
2023-05-08T16:20:10.660Z,21.8
2023-05-08T16:22:18.399Z,21.7
2023-05-08T16:24:27.537Z,21.6
2023-05-08T16:26:35.236Z,21.5
2023-05-08T16:28:42.981Z,21.6
2023-05-08T16:30:51.192Z,21.7
2023-05-08T16:32:59.081Z,21.7
2023-05-08T16:35:11.417Z,21.6
2023-05-08T16:37:19.263Z,21.5
2023-05-08T16:39:28.362Z,21.4
2023-05-08T16:41:36.118Z,21.3
2023-05-08T16:43:43.820Z,21.2
2023-05-08T16:45:52.125Z,21.3
2023-05-08T16:47:59.836Z,21.2
2023-05-08T16:50:08.813Z,21.2
2023-05-08T16:52:16.487Z,21.2
2023-05-08T16:54:24.339Z,21.1
2023-05-08T16:56:33.669Z,21.1
2023-05-08T16:58:43.184Z,21
2023-05-08T17:00:51.090Z,21.1
2023-05-08T17:02:59.002Z,21
2023-05-08T17:05:07.567Z,21
2023-05-08T17:07:15.999Z,21.1
2023-05-08T17:09:25.221Z,21
2023-05-08T17:11:34.439Z,20.9
2023-05-08T17:13:42.965Z,20.9
2023-05-08T17:15:51.025Z,20.8
2023-05-08T17:17:58.812Z,20.7
2023-05-08T17:20:07.839Z,20.7
2023-05-08T17:22:17.759Z,20.6
2023-05-08T17:24:25.516Z,20.6
2023-05-08T17:26:34.621Z,20.4
2023-05-08T17:28:42.380Z,20.3
2023-05-08T17:30:50.732Z,20.2
2023-05-08T17:32:58.970Z,20.1
2023-05-08T17:35:07.783Z,19.9
2023-05-08T17:37:15.617Z,19.8
2023-05-08T17:39:23.499Z,19.6
2023-05-08T17:41:31.515Z,19.4
2023-05-08T17:43:40.913Z,19.2
2023-05-08T17:45:48.769Z,19.2
2023-05-08T17:47:56.568Z,19.1
2023-05-08T17:50:06.386Z,19
2023-05-08T17:52:14.338Z,18.9
2023-05-08T17:54:22.082Z,18.9
2023-05-08T17:56:31.119Z,18.8
2023-05-08T17:58:42.233Z,18.7
2023-05-08T18:00:50.275Z,18.6
2023-05-08T18:02:58.301Z,18.6
2023-05-08T18:05:06.755Z,18.5
2023-05-08T18:07:14.793Z,18.4
2023-05-08T18:09:22.565Z,18.4
2023-05-08T18:11:30.342Z,18.3
2023-05-08T18:13:38.098Z,18.3
2023-05-08T18:15:47.335Z,18.1
2023-05-08T18:17:55.209Z,18.1
2023-05-08T18:20:07.649Z,18
2023-05-08T18:22:15.630Z,18
2023-05-08T18:24:23.865Z,17.9
2023-05-08T18:26:31.747Z,17.8
2023-05-08T18:28:39.805Z,17.8
2023-05-08T18:30:48.950Z,17.7
2023-05-08T18:32:56.817Z,17.7
2023-05-08T18:35:05.362Z,17.6
2023-05-08T18:37:13.162Z,17.5
2023-05-08T18:39:21.064Z,17.5
2023-05-08T18:41:28.844Z,17.4
2023-05-08T18:43:36.936Z,17.4
2023-05-08T18:45:44.843Z,17.3
2023-05-08T18:47:57.536Z,17.2
2023-05-08T18:50:06.250Z,17.1
2023-05-08T18:52:14.409Z,17
2023-05-08T18:54:23.676Z,17
2023-05-08T18:56:34.113Z,16.9
2023-05-08T18:58:41.820Z,16.8
2023-05-08T19:00:49.921Z,16.8
2023-05-08T19:02:59.188Z,16.7
2023-05-08T19:05:08.513Z,16.7
2023-05-08T19:07:16.695Z,16.6
2023-05-08T19:09:24.553Z,16.5
2023-05-08T19:11:32.397Z,16.5
2023-05-08T19:13:40.849Z,16.5
2023-05-08T19:15:56.073Z,16.4
2023-05-08T19:18:06.436Z,16.3
2023-05-08T19:20:15.092Z,16.3
2023-05-08T19:22:23.737Z,16.2
2023-05-08T19:24:33.244Z,16.2
2023-05-08T19:26:41.086Z,16.1
2023-05-08T19:28:48.815Z,16
2023-05-08T19:30:56.739Z,16
2023-05-08T19:33:06.167Z,15.9
2023-05-08T19:35:14.121Z,15.8
2023-05-08T19:37:21.956Z,15.8
2023-05-08T19:39:29.732Z,15.8
2023-05-08T19:41:37.469Z,15.7
2023-05-08T19:43:46.346Z,15.7
2023-05-08T19:45:54.637Z,15.6
2023-05-08T19:48:06.167Z,15.6
2023-05-08T19:50:19.436Z,15.6
2023-05-08T19:52:27.802Z,15.5
2023-05-08T19:54:35.637Z,15.5
2023-05-08T19:56:43.593Z,15.4
2023-05-08T19:58:51.667Z,15.4
2023-05-08T20:01:02.478Z,15.4
2023-05-08T20:03:17.589Z,15.4
2023-05-08T20:05:27.289Z,15.3
2023-05-08T20:07:35.082Z,15.3
2023-05-08T20:09:42.953Z,15.3
2023-05-08T20:11:50.762Z,15.2
2023-05-08T20:13:58.680Z,15.2
2023-05-08T20:16:06.961Z,15.2
2023-05-08T20:18:14.801Z,15.1
2023-05-08T20:20:23.389Z,15.1
2023-05-08T20:22:32.505Z,15.1
2023-05-08T20:24:40.263Z,15
2023-05-08T20:26:48.262Z,15
2023-05-08T20:28:56.354Z,15
2023-05-08T20:31:05.333Z,14.9
2023-05-08T20:33:18.838Z,14.9
2023-05-08T20:35:27.909Z,14.9
2023-05-08T20:37:43.948Z,14.8
2023-05-08T20:39:51.780Z,14.8
2023-05-08T20:41:59.627Z,14.8
2023-05-08T20:44:08.290Z,14.7
2023-05-08T20:46:16.092Z,14.7
2023-05-08T20:48:24.381Z,14.6
2023-05-08T20:50:39.925Z,14.6
2023-05-08T20:52:52.947Z,14.5
2023-05-08T20:55:01.090Z,14.5
2023-05-08T20:57:08.991Z,14.4
2023-05-08T20:59:18.682Z,14.4
2023-05-08T21:01:26.512Z,14.4
2023-05-08T21:03:34.688Z,14.4
2023-05-08T21:05:42.608Z,14.3
2023-05-08T21:07:58.604Z,14.3
2023-05-08T21:10:07.466Z,14.3
2023-05-08T21:12:15.912Z,14.2
2023-05-08T21:14:25.443Z,14.2
2023-05-08T21:16:33.388Z,14.2
2023-05-08T21:18:46.804Z,14.1
2023-05-08T21:20:56.326Z,14.1
2023-05-08T21:23:06.545Z,14.1
2023-05-08T21:25:15.756Z,14
2023-05-08T21:27:25.857Z,14
2023-05-08T21:29:33.654Z,13.9
2023-05-08T21:31:42.007Z,13.9
2023-05-08T21:33:50.238Z,13.8
2023-05-08T21:35:58.127Z,13.8
2023-05-08T21:38:11.861Z,13.8
2023-05-08T21:41:47.653Z,13.8
2023-05-08T21:42:46.717Z,13.8
2023-05-08T21:44:56.184Z,13.7
2023-05-08T21:47:03.982Z,13.7
2023-05-08T21:49:12.685Z,13.6
2023-05-08T21:51:21.759Z,13.6
2023-05-08T21:53:33.333Z,13.5
2023-05-08T21:55:42.094Z,13.5
2023-05-08T21:57:50.026Z,13.5
2023-05-08T21:59:57.807Z,13.5
2023-05-08T22:02:05.824Z,13.5
2023-05-08T22:04:14.226Z,13.5
2023-05-08T22:06:22.005Z,13.4
2023-05-08T22:08:32.385Z,13.4
2023-05-08T22:13:18.770Z,13.4
2023-05-08T22:16:19.144Z,13.3
2023-05-08T22:16:27.320Z,13.3
2023-05-08T22:18:02.952Z,13.3
2023-05-08T22:21:13.501Z,13.2
2023-05-08T22:23:10.239Z,13.2
2023-05-08T22:25:37.476Z,13.2
2023-05-08T22:28:35.797Z,13.2
2023-05-08T22:30:02.563Z,13.1
2023-05-08T22:32:39.569Z,13.1
2023-05-08T22:35:06.435Z,13.1
2023-05-08T22:37:03.373Z,13.1
2023-05-08T22:39:42.755Z,13
2023-05-08T22:41:42.093Z,13
2023-05-08T22:43:57.784Z,13
2023-05-08T22:47:06.115Z,12.9
2023-05-08T22:49:02.662Z,12.9
2023-05-08T22:51:11.308Z,12.9
2023-05-08T22:53:27.767Z,12.8
2023-05-08T22:55:35.838Z,12.8
2023-05-08T22:57:47.615Z,12.8
2023-05-08T22:59:59.201Z,12.8
2023-05-08T23:02:07.166Z,12.8
2023-05-08T23:04:15.885Z,12.7
2023-05-08T23:06:25.440Z,12.7
2023-05-08T23:08:35.992Z,12.7
2023-05-08T23:10:44.451Z,12.7
2023-05-08T23:12:55.734Z,12.6
2023-05-08T23:15:07.978Z,12.6
2023-05-08T23:17:15.922Z,12.6
2023-05-08T23:19:24.158Z,12.6
2023-05-08T23:21:41.854Z,12.6
2023-05-08T23:23:49.707Z,12.5
2023-05-08T23:26:02.364Z,12.5
2023-05-08T23:28:11.815Z,12.5
2023-05-08T23:30:19.989Z,12.5
2023-05-08T23:32:27.342Z,12.4
2023-05-08T23:34:35.811Z,12.4
2023-05-08T23:36:43.722Z,12.4
2023-05-08T23:38:51.603Z,12.4
2023-05-08T23:41:45.729Z,12.3
2023-05-08T23:43:32.465Z,12.3
2023-05-08T23:45:46.099Z,12.3
2023-05-08T23:48:36.016Z,12.3
2023-05-08T23:50:40.125Z,12.3
2023-05-08T23:52:47.543Z,12.3
2023-05-08T23:54:58.227Z,12.3
2023-05-08T23:57:06.212Z,12.2
2023-05-08T23:59:28.602Z,12.2
